createdAt,value
2022-09-06T00:00:49.479Z,87.07
2022-09-06T00:01:49.465Z,87.58
2022-09-06T00:02:49.525Z,87.48
2022-09-06T00:03:49.487Z,87.38
2022-09-06T00:04:49.448Z,87.07
2022-09-06T00:05:49.426Z,87.18
2022-09-06T00:06:49.537Z,87.18
2022-09-06T00:07:49.404Z,87.27
2022-09-06T00:08:49.426Z,87.27
2022-09-06T00:09:49.389Z,87.27
2022-09-06T00:10:49.376Z,87.58
2022-09-06T00:11:49.699Z,87.68
2022-09-06T00:12:49.371Z,87.68
2022-09-06T00:13:49.352Z,87.68
2022-09-06T00:14:49.364Z,88.18
2022-09-06T00:15:49.338Z,87.48
2022-09-06T00:16:49.308Z,87.78
2022-09-06T00:17:49.300Z,87.98
2022-09-06T00:18:49.309Z,87.98
2022-09-06T00:19:49.309Z,87.68
2022-09-06T00:20:49.271Z,87.18
2022-09-06T00:21:49.267Z,87.07
2022-09-06T00:22:49.231Z,87.48
2022-09-06T00:23:49.243Z,87.78
2022-09-06T00:24:49.212Z,87.48
2022-09-06T00:25:49.294Z,86.97
2022-09-06T00:26:49.204Z,87.98
2022-09-06T00:27:49.182Z,87.98
2022-09-06T00:28:49.183Z,87.68
2022-09-06T00:29:49.163Z,87.68
2022-09-06T00:30:49.249Z,87.58
2022-09-06T00:31:49.146Z,87.18
2022-09-06T00:32:49.125Z,87.48
2022-09-06T00:33:49.136Z,87.07
2022-09-06T00:34:49.125Z,87.07
2022-09-06T00:35:49.176Z,87.18
2022-09-06T00:36:49.114Z,86.77
2022-09-06T00:37:49.079Z,86.97
2022-09-06T00:38:49.105Z,86.47
2022-09-06T00:39:49.084Z,86.67
2022-09-06T00:40:49.049Z,86.41
2022-09-06T00:41:49.141Z,86.30
2022-09-06T00:42:49.099Z,86.71
2022-09-06T00:43:49.009Z,86.41
2022-09-06T00:44:49.001Z,86.81
2022-09-06T00:45:49.042Z,86.71
2022-09-06T00:46:48.979Z,87.01
2022-09-06T00:47:48.997Z,86.61
2022-09-06T00:48:48.962Z,86.61
2022-09-06T00:49:48.951Z,86.71
2022-09-06T00:50:48.943Z,86.91
2022-09-06T00:51:48.935Z,86.91
2022-09-06T00:52:48.957Z,86.51
2022-09-06T00:53:48.912Z,86.10
2022-09-06T00:54:48.903Z,86.81
2022-09-06T00:55:48.902Z,86.61
2022-09-06T00:56:48.885Z,86.81
2022-09-06T00:57:48.887Z,86.61
2022-09-06T00:58:48.886Z,86.81
2022-09-06T00:59:48.854Z,86.91
2022-09-06T01:00:49.647Z,86.91
2022-09-06T01:01:48.990Z,87.32
2022-09-06T01:02:48.966Z,87.52
2022-09-06T01:03:48.817Z,87.32
2022-09-06T01:04:48.776Z,87.41
2022-09-06T01:05:52.665Z,87.32
2022-09-06T01:06:49.777Z,87.21
2022-09-06T01:07:48.766Z,87.12
2022-09-06T01:08:48.789Z,87.01
2022-09-06T01:09:48.746Z,86.81
2022-09-06T01:10:48.730Z,86.71
2022-09-06T01:11:48.741Z,86.91
2022-09-06T01:12:48.696Z,87.21
2022-09-06T01:13:48.755Z,87.12
2022-09-06T01:14:48.700Z,87.01
2022-09-06T01:15:48.716Z,86.81
2022-09-06T01:16:48.659Z,86.71
2022-09-06T01:17:48.639Z,86.10
2022-09-06T01:18:48.672Z,86.35
2022-09-06T01:19:48.619Z,86.75
2022-09-06T01:20:48.608Z,86.65
2022-09-06T01:21:48.602Z,86.65
2022-09-06T01:22:48.581Z,86.55
2022-09-06T01:23:48.588Z,86.35
2022-09-06T01:24:48.572Z,86.35
2022-09-06T01:25:48.558Z,86.15
2022-09-06T01:26:48.559Z,86.25
2022-09-06T01:27:48.531Z,86.35
2022-09-06T01:28:48.564Z,85.54
2022-09-06T01:29:48.511Z,85.84
2022-09-06T01:30:49.331Z,86.45
2022-09-06T01:31:48.492Z,86.15
2022-09-06T01:32:48.473Z,86.55
2022-09-06T01:33:48.474Z,86.55
2022-09-06T01:34:48.491Z,86.75
2022-09-06T01:35:48.506Z,86.55
2022-09-06T01:37:06.609Z,86.45
2022-09-06T01:37:49.445Z,86.45
2022-09-06T01:38:48.426Z,86.55
2022-09-06T01:39:48.510Z,86.25
2022-09-06T01:40:48.430Z,86.15
2022-09-06T01:41:48.376Z,86.45
2022-09-06T01:42:48.385Z,86.85
2022-09-06T01:43:48.387Z,86.65
2022-09-06T01:44:48.365Z,86.45
2022-09-06T01:45:48.418Z,86.75
2022-09-06T01:46:48.326Z,86.25
2022-09-06T01:47:48.316Z,86.35
2022-09-06T01:48:48.320Z,86.85
2022-09-06T01:49:48.299Z,86.75
2022-09-06T01:50:48.317Z,86.55
2022-09-06T01:51:48.280Z,86.55
2022-09-06T01:52:48.261Z,86.25
2022-09-06T01:53:48.264Z,85.94
2022-09-06T01:54:48.252Z,85.99
2022-09-06T01:55:48.270Z,86.49
2022-09-06T01:56:48.219Z,86.39
2022-09-06T01:57:48.202Z,86.59
2022-09-06T01:58:48.207Z,86.59
2022-09-06T01:59:48.510Z,86.29
2022-09-06T02:00:48.171Z,86.08
2022-09-06T02:01:48.246Z,85.68
2022-09-06T02:02:48.245Z,86.29
2022-09-06T02:03:48.149Z,86.39
2022-09-06T02:04:48.155Z,85.99
2022-09-06T02:05:48.138Z,86.29
2022-09-06T02:06:48.124Z,86.29
2022-09-06T02:07:48.147Z,85.99
2022-09-06T02:08:48.114Z,86.29
2022-09-06T02:09:48.090Z,85.78
2022-09-06T02:10:48.092Z,86.49
2022-09-06T02:11:48.052Z,85.99
2022-09-06T02:12:48.052Z,86.49
2022-09-06T02:13:48.047Z,86.59
2022-09-06T02:14:48.017Z,86.59
2022-09-06T02:15:48.023Z,86.49
2022-09-06T02:16:48.123Z,86.59
2022-09-06T02:17:48.011Z,86.79
2022-09-06T02:18:47.980Z,86.90
2022-09-06T02:19:47.965Z,86.79
2022-09-06T02:20:47.955Z,86.69
2022-09-06T02:21:47.957Z,86.90
2022-09-06T02:22:47.974Z,86.99
2022-09-06T02:23:47.927Z,86.59
2022-09-06T02:24:47.909Z,85.68
2022-09-06T02:25:47.904Z,86.08
2022-09-06T02:26:47.901Z,86.69
2022-09-06T02:27:47.889Z,86.69
2022-09-06T02:28:47.894Z,86.49
2022-09-06T02:29:47.859Z,86.08
2022-09-06T02:30:47.894Z,85.99
2022-09-06T02:31:47.857Z,85.99
2022-09-06T02:32:47.896Z,86.29
2022-09-06T02:33:47.818Z,86.49
2022-09-06T02:34:47.789Z,86.39
2022-09-06T02:35:47.805Z,86.59
2022-09-06T02:36:47.864Z,86.39
2022-09-06T02:37:47.799Z,86.19
2022-09-06T02:38:47.771Z,85.88
2022-09-06T02:39:47.784Z,85.88
2022-09-06T02:40:47.773Z,86.29
2022-09-06T02:41:47.722Z,85.42
2022-09-06T02:42:47.760Z,85.93
2022-09-06T02:43:47.702Z,86.02
2022-09-06T02:44:47.702Z,85.93
2022-09-06T02:45:47.756Z,86.13
2022-09-06T02:46:47.661Z,86.02
2022-09-06T02:47:47.687Z,86.22
2022-09-06T02:48:47.665Z,86.02
2022-09-06T02:49:47.636Z,86.63
2022-09-06T02:50:47.638Z,86.43
2022-09-06T02:51:47.636Z,85.62
2022-09-06T02:52:47.645Z,86.02
2022-09-06T02:53:47.606Z,85.82
2022-09-06T02:54:47.596Z,86.02
2022-09-06T02:55:47.576Z,85.52
2022-09-06T02:56:51.613Z,85.82
2022-09-06T02:57:47.599Z,85.52
2022-09-06T02:58:47.545Z,85.52
2022-09-06T02:59:47.545Z,85.31
2022-09-06T03:00:48.372Z,84.71
2022-09-06T03:01:47.670Z,84.81
2022-09-06T03:02:47.567Z,85.02
2022-09-06T03:03:47.496Z,85.02
2022-09-06T03:04:47.898Z,84.61
2022-09-06T03:05:47.471Z,84.81
2022-09-06T03:06:47.471Z,84.81
2022-09-06T03:07:47.491Z,84.71
2022-09-06T03:08:47.458Z,84.41
2022-09-06T03:09:47.430Z,85.02
2022-09-06T03:10:47.432Z,84.91
2022-09-06T03:11:47.398Z,84.61
2022-09-06T03:12:47.612Z,84.81
2022-09-06T03:13:47.407Z,84.51
2022-09-06T03:14:47.371Z,84.61
2022-09-06T03:15:47.359Z,84.71
2022-09-06T03:16:47.430Z,84.31
2022-09-06T03:17:47.339Z,84.31
2022-09-06T03:18:47.350Z,84.31
2022-09-06T03:19:47.364Z,84.11
2022-09-06T03:20:47.303Z,84.61
2022-09-06T03:21:47.323Z,84.61
2022-09-06T03:22:47.290Z,84.11
2022-09-06T03:23:47.333Z,84.61
2022-09-06T03:24:47.303Z,84.31
2022-09-06T03:25:47.265Z,83.90
2022-09-06T03:26:47.255Z,83.64
2022-09-06T03:27:47.238Z,83.90
2022-09-06T03:28:47.235Z,84.34
2022-09-06T03:29:47.234Z,84.31
2022-09-06T03:30:48.079Z,84.75
2022-09-06T03:31:47.186Z,84.31
2022-09-06T03:32:47.185Z,84.41
2022-09-06T03:33:47.167Z,84.11
2022-09-06T03:34:47.158Z,84.25
2022-09-06T03:35:47.175Z,83.64
2022-09-06T03:36:47.136Z,84.25
2022-09-06T03:37:47.129Z,83.74
2022-09-06T03:38:47.126Z,84.04
2022-09-06T03:39:47.164Z,83.94
2022-09-06T03:40:47.097Z,83.84
2022-09-06T03:41:47.107Z,83.64
2022-09-06T03:42:47.079Z,83.44
2022-09-06T03:43:47.046Z,83.94
2022-09-06T03:44:47.047Z,83.23
2022-09-06T03:45:47.084Z,83.23
2022-09-06T03:46:47.047Z,83.23
2022-09-06T03:47:47.009Z,82.73
2022-09-06T03:48:46.998Z,83.44
2022-09-06T03:49:46.988Z,83.64
2022-09-06T03:50:46.980Z,83.33
2022-09-06T03:51:47.421Z,83.84
2022-09-06T03:52:46.960Z,83.84
2022-09-06T03:53:46.952Z,83.03
2022-09-06T03:54:46.942Z,83.64
2022-09-06T03:55:46.935Z,83.84
2022-09-06T03:56:46.943Z,83.74
2022-09-06T03:57:46.914Z,83.03
2022-09-06T03:58:46.904Z,83.54
2022-09-06T03:59:46.884Z,82.83
2022-09-06T04:00:46.944Z,83.13
2022-09-06T04:01:46.916Z,83.64
2022-09-06T04:02:46.900Z,83.23
2022-09-06T04:03:46.856Z,83.23
2022-09-06T04:04:46.834Z,83.13
2022-09-06T04:05:46.841Z,82.93
2022-09-06T04:06:46.837Z,83.03
2022-09-06T04:07:46.899Z,83.33
2022-09-06T04:08:46.798Z,83.33
2022-09-06T04:09:46.782Z,83.54
2022-09-06T04:10:46.785Z,82.42
2022-09-06T04:11:46.789Z,82.02
2022-09-06T04:12:46.772Z,82.83
2022-09-06T04:13:46.776Z,83.13
2022-09-06T04:14:46.727Z,82.97
2022-09-06T04:15:46.729Z,83.33
2022-09-06T04:16:46.811Z,83.23
2022-09-06T04:17:46.721Z,83.03
2022-09-06T04:18:46.712Z,83.13
2022-09-06T04:19:46.684Z,82.93
2022-09-06T04:20:46.788Z,83.03
2022-09-06T04:21:46.654Z,83.74
2022-09-06T04:22:46.636Z,83.64
2022-09-06T04:23:46.640Z,82.83
2022-09-06T04:24:46.629Z,83.23
2022-09-06T04:25:46.601Z,83.23
2022-09-06T04:26:46.589Z,82.93
2022-09-06T04:27:46.591Z,83.23
2022-09-06T04:28:46.622Z,82.56
2022-09-06T04:29:46.561Z,82.97
2022-09-06T04:30:46.580Z,83.58
2022-09-06T04:31:46.577Z,83.07
2022-09-06T04:32:46.518Z,83.78
2022-09-06T04:33:46.520Z,83.68
2022-09-06T04:34:46.502Z,83.27
2022-09-06T04:35:46.524Z,83.37
2022-09-06T04:36:48.432Z,83.07
2022-09-06T04:37:46.481Z,83.68
2022-09-06T04:38:46.451Z,83.68
2022-09-06T04:39:46.490Z,84.08
2022-09-06T04:40:46.443Z,83.37
2022-09-06T04:41:46.451Z,84.08
2022-09-06T04:42:46.434Z,84.39
2022-09-06T04:43:46.421Z,84.89
2022-09-06T04:44:46.402Z,84.39
2022-09-06T04:45:46.422Z,84.79
2022-09-06T04:46:46.425Z,84.79
2022-09-06T04:47:46.365Z,84.99
2022-09-06T04:48:46.348Z,84.75
2022-09-06T04:49:46.345Z,84.75
2022-09-06T04:50:46.342Z,84.69
2022-09-06T04:51:46.354Z,84.79
2022-09-06T04:52:46.306Z,84.59
2022-09-06T04:53:46.321Z,84.69
2022-09-06T04:54:46.315Z,84.48
2022-09-06T04:55:46.284Z,84.08
2022-09-06T04:56:46.379Z,83.78
2022-09-06T04:57:50.684Z,84.28
2022-09-06T04:58:47.248Z,84.28
2022-09-06T04:59:46.249Z,84.19
2022-09-06T05:00:46.273Z,84.48
2022-09-06T05:01:46.229Z,84.48
2022-09-06T05:02:46.303Z,84.99
2022-09-06T05:03:46.508Z,84.79
2022-09-06T05:04:46.300Z,84.79
2022-09-06T05:05:46.167Z,84.69
2022-09-06T05:06:46.150Z,84.69
2022-09-06T05:07:46.171Z,84.39
2022-09-06T05:08:46.133Z,84.28
2022-09-06T05:09:46.119Z,84.59
2022-09-06T05:10:46.110Z,84.69
2022-09-06T05:11:46.103Z,84.99
2022-09-06T05:12:46.103Z,84.59
2022-09-06T05:13:46.113Z,85.10
2022-09-06T05:14:46.167Z,85.30
2022-09-06T05:15:46.073Z,85.10
2022-09-06T05:16:46.066Z,85.39
2022-09-06T05:17:46.047Z,84.89
2022-09-06T05:18:46.070Z,84.95
2022-09-06T05:19:46.026Z,84.55
2022-09-06T05:20:46.015Z,83.17
2022-09-06T05:21:46.006Z,83.37
2022-09-06T05:22:46.298Z,83.17
2022-09-06T05:23:46.013Z,83.68
2022-09-06T05:24:45.955Z,83.47
2022-09-06T05:25:45.955Z,83.37
2022-09-06T05:26:45.944Z,82.46
2022-09-06T05:27:45.951Z,83.27
2022-09-06T05:28:45.967Z,83.37
2022-09-06T05:29:45.919Z,83.58
2022-09-06T05:30:45.900Z,82.76
2022-09-06T05:31:45.979Z,83.17
2022-09-06T05:32:45.899Z,83.07
2022-09-06T05:33:45.908Z,83.68
2022-09-06T05:34:45.861Z,83.58
2022-09-06T05:35:45.838Z,83.98
2022-09-06T05:36:45.848Z,84.08
2022-09-06T05:37:45.821Z,83.37
2022-09-06T05:38:45.882Z,82.67
2022-09-06T05:39:45.871Z,83.58
2022-09-06T05:40:45.801Z,83.47
2022-09-06T05:41:45.808Z,83.88
2022-09-06T05:42:45.881Z,83.94
2022-09-06T05:43:45.773Z,84.04
2022-09-06T05:44:45.801Z,83.27
2022-09-06T05:45:45.793Z,83.44
2022-09-06T05:46:45.744Z,83.54
2022-09-06T05:47:45.764Z,82.73
2022-09-06T05:48:45.871Z,83.44
2022-09-06T05:49:45.739Z,82.93
2022-09-06T05:50:45.717Z,83.33
2022-09-06T05:51:45.685Z,83.33
2022-09-06T05:52:46.459Z,83.54
2022-09-06T05:53:45.665Z,83.64
2022-09-06T05:54:45.674Z,83.33
2022-09-06T05:55:45.661Z,83.64
2022-09-06T05:56:45.627Z,83.44
2022-09-06T05:57:45.626Z,83.74
2022-09-06T05:58:45.604Z,83.74
2022-09-06T05:59:45.616Z,83.84
2022-09-06T06:00:45.588Z,83.44
2022-09-06T06:01:45.708Z,83.33
2022-09-06T06:02:45.629Z,83.03
2022-09-06T06:03:45.574Z,82.93
2022-09-06T06:04:45.565Z,83.54
2022-09-06T06:05:45.513Z,82.62
2022-09-06T06:06:45.544Z,82.53
2022-09-06T06:07:45.506Z,82.93
2022-09-06T06:08:45.521Z,82.53
2022-09-06T06:09:45.545Z,83.33
2022-09-06T06:10:45.505Z,83.33
2022-09-06T06:11:45.470Z,82.93
2022-09-06T06:12:45.437Z,82.32
2022-09-06T06:13:45.438Z,83.03
2022-09-06T06:14:45.483Z,83.23
2022-09-06T06:15:45.779Z,82.93
2022-09-06T06:16:45.596Z,83.03
2022-09-06T06:17:45.430Z,83.33
2022-09-06T06:18:49.981Z,83.44
2022-09-06T06:19:46.401Z,83.13
2022-09-06T06:20:45.418Z,82.73
2022-09-06T06:21:45.344Z,83.19
2022-09-06T06:22:45.339Z,81.88
2022-09-06T06:23:45.335Z,82.08
2022-09-06T06:24:45.357Z,82.79
2022-09-06T06:25:45.308Z,82.39
2022-09-06T06:26:45.331Z,82.39
2022-09-06T06:27:45.301Z,82.08
2022-09-06T06:28:45.307Z,82.39
2022-09-06T06:29:45.293Z,82.08
2022-09-06T06:30:45.274Z,81.37
2022-09-06T06:31:45.325Z,81.07
2022-09-06T06:32:45.241Z,81.37
2022-09-06T06:33:45.223Z,80.06
2022-09-06T06:34:45.233Z,80.46
2022-09-06T06:35:45.207Z,80.97
2022-09-06T06:36:45.206Z,80.66
2022-09-06T06:37:45.214Z,80.77
2022-09-06T06:38:45.176Z,80.97
2022-09-06T06:39:45.225Z,79.96
2022-09-06T06:40:45.147Z,80.46
2022-09-06T06:41:45.211Z,79.96
2022-09-06T06:42:45.154Z,80.06
2022-09-06T06:43:45.115Z,80.46
2022-09-06T06:44:45.107Z,80.26
2022-09-06T06:45:45.137Z,80.66
2022-09-06T06:46:45.112Z,80.97
2022-09-06T06:47:45.139Z,81.17
2022-09-06T06:48:45.092Z,81.48
2022-09-06T06:49:45.051Z,81.17
2022-09-06T06:50:45.038Z,80.97
2022-09-06T06:51:45.053Z,80.66
2022-09-06T06:52:45.049Z,81.37
2022-09-06T06:53:45.019Z,81.88
2022-09-06T06:54:45.007Z,81.98
2022-09-06T06:55:44.989Z,82.08
2022-09-06T06:56:45.007Z,81.98
2022-09-06T06:57:45.285Z,82.18
2022-09-06T06:58:44.997Z,82.28
2022-09-06T06:59:44.939Z,82.69
2022-09-06T07:00:45.044Z,82.79
2022-09-06T07:01:45.021Z,82.59
2022-09-06T07:02:44.921Z,82.99
2022-09-06T07:03:44.965Z,82.95
2022-09-06T07:04:45.073Z,82.75
2022-09-06T07:07:45.857Z,82.55
2022-09-06T07:08:44.857Z,83.36
2022-09-06T07:10:45.822Z,83.05
2022-09-06T07:11:44.805Z,83.26
2022-09-06T07:12:44.813Z,82.75
2022-09-06T07:13:44.814Z,82.14
2022-09-06T07:14:44.775Z,82.75
2022-09-06T07:15:44.763Z,81.84
2022-09-06T07:16:44.790Z,82.35
2022-09-06T07:17:44.774Z,82.85
2022-09-06T07:18:44.733Z,82.35
2022-09-06T07:21:45.696Z,81.23
2022-09-06T07:22:44.694Z,82.04
2022-09-06T07:24:45.693Z,82.95
2022-09-06T07:25:44.665Z,81.54
2022-09-06T07:28:44.669Z,82.01
2022-09-06T07:29:44.636Z,82.91
2022-09-06T07:30:44.619Z,82.81
2022-09-06T07:32:45.607Z,82.31
2022-09-06T07:33:44.623Z,82.10
2022-09-06T07:34:44.576Z,82.51
2022-09-06T07:35:44.587Z,82.01
2022-09-06T07:36:44.954Z,82.41
2022-09-06T07:37:44.533Z,82.41
2022-09-06T07:38:44.562Z,82.61
2022-09-06T07:39:44.615Z,82.91
2022-09-06T07:40:44.508Z,82.51
2022-09-06T07:41:44.503Z,82.21
2022-09-06T07:42:44.487Z,82.61
2022-09-06T07:43:44.476Z,82.41
2022-09-06T07:44:44.492Z,82.10
2022-09-06T07:45:44.485Z,83.12
2022-09-06T07:46:44.518Z,82.71
2022-09-06T07:47:59.882Z,83.01
2022-09-06T07:48:45.424Z,83.12
2022-09-06T07:51:44.436Z,83.01
2022-09-06T07:53:45.354Z,83.22
2022-09-06T07:54:44.336Z,83.32
2022-09-06T07:55:44.358Z,83.07
2022-09-06T07:56:44.342Z,81.36
2022-09-06T07:57:44.385Z,81.80
2022-09-06T07:58:44.328Z,82.61
2022-09-06T07:59:44.318Z,83.18
2022-09-06T08:00:44.364Z,82.17
2022-09-06T08:01:44.340Z,82.67
2022-09-06T08:02:44.316Z,83.38
2022-09-06T08:03:44.266Z,83.28
2022-09-06T08:04:46.645Z,82.78
2022-09-06T08:07:45.199Z,83.48
2022-09-06T08:08:59.818Z,83.48
2022-09-06T08:09:45.179Z,83.78
2022-09-06T08:10:44.227Z,83.38
2022-09-06T08:11:44.160Z,83.68
2022-09-06T08:12:44.168Z,83.07
2022-09-06T08:13:44.182Z,82.78
2022-09-06T08:14:44.191Z,83.07
2022-09-06T08:15:44.132Z,82.57
2022-09-06T08:16:44.250Z,81.96
2022-09-06T08:17:44.099Z,82.78
2022-09-06T08:18:44.090Z,82.87
2022-09-06T08:19:44.163Z,82.98
2022-09-06T08:20:44.073Z,82.57
2022-09-06T08:21:44.106Z,82.98
2022-09-06T08:22:44.095Z,83.18
2022-09-06T08:23:44.044Z,82.57
2022-09-06T08:24:44.056Z,82.67
2022-09-06T08:25:44.041Z,83.58
2022-09-06T08:26:44.032Z,83.58
2022-09-06T08:27:43.996Z,83.58
2022-09-06T08:28:43.987Z,82.37
2022-09-06T08:29:43.987Z,81.36
2022-09-06T08:30:43.957Z,81.87
2022-09-06T08:31:44.052Z,82.47
2022-09-06T08:32:43.928Z,83.07
2022-09-06T08:33:44.706Z,83.48
2022-09-06T08:34:43.886Z,82.47
2022-09-06T08:35:43.953Z,82.13
2022-09-06T08:36:43.936Z,81.67
2022-09-06T08:37:44.384Z,82.43
2022-09-06T08:38:43.886Z,80.85
2022-09-06T08:39:43.931Z,81.12
2022-09-06T08:40:43.858Z,81.52
2022-09-06T08:41:43.868Z,81.93
2022-09-06T08:42:43.822Z,81.93
2022-09-06T08:43:44.007Z,82.03
2022-09-06T08:44:59.233Z,81.62
2022-09-06T08:45:45.600Z,82.73
2022-09-06T08:46:43.905Z,82.73
2022-09-06T08:47:43.780Z,82.43
2022-09-06T08:48:43.758Z,82.03
2022-09-06T08:49:43.740Z,81.42
2022-09-06T08:50:43.772Z,81.93
2022-09-06T08:51:43.740Z,82.73
2022-09-06T08:52:54.425Z,81.82
2022-09-06T08:53:44.712Z,82.13
2022-09-06T08:54:43.711Z,81.62
2022-09-06T08:55:43.707Z,82.33
2022-09-06T08:56:43.726Z,81.62
2022-09-06T08:57:43.673Z,81.62
2022-09-06T08:58:43.650Z,82.23
2022-09-06T08:59:43.663Z,82.03
2022-09-06T09:00:43.678Z,82.64
2022-09-06T09:01:43.666Z,83.04
2022-09-06T09:02:44.009Z,82.93
2022-09-06T09:03:43.587Z,82.23
2022-09-06T09:04:43.587Z,82.93
2022-09-06T09:05:43.575Z,82.73
2022-09-06T09:06:43.595Z,82.64
2022-09-06T09:07:43.575Z,82.23
2022-09-06T09:08:43.576Z,81.52
2022-09-06T09:09:43.547Z,80.82
2022-09-06T09:10:43.532Z,81.82
2022-09-06T09:11:43.537Z,81.12
2022-09-06T09:12:43.520Z,81.32
2022-09-06T09:13:43.486Z,81.73
2022-09-06T09:14:43.480Z,81.02
2022-09-06T09:15:43.459Z,81.38
2022-09-06T09:16:43.548Z,81.38
2022-09-06T09:17:43.492Z,80.18
2022-09-06T09:18:43.431Z,79.97
2022-09-06T09:19:43.429Z,78.96
2022-09-06T09:20:43.458Z,80.18
2022-09-06T09:21:43.417Z,81.38
2022-09-06T09:22:43.417Z,81.08
2022-09-06T09:23:43.403Z,80.38
2022-09-06T09:24:43.822Z,80.98
2022-09-06T09:25:43.341Z,79.97
2022-09-06T09:26:43.374Z,79.16
2022-09-06T09:27:43.320Z,79.77
2022-09-06T09:28:43.335Z,79.67
2022-09-06T09:30:47.646Z,81.18
2022-09-06T09:31:43.370Z,80.27
2022-09-06T09:32:43.311Z,80.47
2022-09-06T09:33:43.402Z,80.58
2022-09-06T09:34:43.253Z,79.97
2022-09-06T09:35:43.251Z,79.06
2022-09-06T09:38:43.230Z,78.36
2022-09-06T09:39:43.233Z,78.16
2022-09-06T09:40:43.253Z,77.75
2022-09-06T09:41:43.154Z,76.84
2022-09-06T09:42:43.157Z,77.55
2022-09-06T09:43:43.166Z,76.54
2022-09-06T09:44:43.135Z,77.35
2022-09-06T09:45:43.126Z,78.16
2022-09-06T09:46:43.193Z,78.72
2022-09-06T09:47:43.097Z,78.52
2022-09-06T09:48:43.118Z,78.83
2022-09-06T09:49:43.077Z,78.32
2022-09-06T09:50:43.074Z,77.82
2022-09-06T09:51:43.063Z,78.63
2022-09-06T09:52:43.047Z,78.12
2022-09-06T09:53:43.059Z,77.21
2022-09-06T09:54:43.059Z,77.31
2022-09-06T09:55:43.019Z,77.92
2022-09-06T09:56:43.039Z,78.83
2022-09-06T09:57:42.988Z,79.03
2022-09-06T09:58:42.978Z,78.42
2022-09-06T09:59:42.999Z,78.12
2022-09-06T10:00:43.053Z,77.21
2022-09-06T10:01:42.946Z,75.80
2022-09-06T10:02:42.938Z,76.10
2022-09-06T10:04:44.562Z,76.61
2022-09-06T10:05:42.933Z,76.71
2022-09-06T10:07:43.883Z,74.59
2022-09-06T10:08:42.871Z,75.40
2022-09-06T10:09:42.872Z,73.88
2022-09-06T10:10:42.863Z,73.28
2022-09-06T10:11:42.832Z,73.65
2022-09-06T10:12:42.831Z,74.55
2022-09-06T10:13:42.802Z,75.36
2022-09-06T10:14:42.814Z,74.15
2022-09-06T10:15:42.843Z,73.85
2022-09-06T10:16:42.785Z,73.95
2022-09-06T10:17:42.773Z,73.65
2022-09-06T10:18:42.771Z,74.46
2022-09-06T10:19:42.760Z,73.14
2022-09-06T10:20:42.771Z,72.64
2022-09-06T10:21:42.735Z,72.04
2022-09-06T10:22:42.716Z,71.53
2022-09-06T10:24:43.705Z,73.25
2022-09-06T10:25:44.043Z,74.12
2022-09-06T10:26:42.712Z,73.25
2022-09-06T10:27:55.728Z,71.91
2022-09-06T10:28:43.650Z,71.40
2022-09-06T10:29:42.647Z,73.21
2022-09-06T10:30:42.637Z,73.21
2022-09-06T10:31:42.691Z,72.61
2022-09-06T10:32:42.697Z,71.70
2022-09-06T10:33:42.608Z,72.51
2022-09-06T10:34:42.610Z,72.41
2022-09-06T10:35:42.592Z,73.21
2022-09-06T10:36:42.559Z,73.72
2022-09-06T10:37:42.567Z,72.91
2022-09-06T10:38:42.538Z,73.92
2022-09-06T10:39:42.590Z,73.61
2022-09-06T10:40:42.529Z,74.32
2022-09-06T10:41:42.508Z,73.92
2022-09-06T10:42:42.544Z,73.11
2022-09-06T10:43:42.500Z,74.22
2022-09-06T10:44:42.481Z,72.97
2022-09-06T10:45:42.475Z,71.67
2022-09-06T10:46:42.474Z,73.08
2022-09-06T10:47:42.441Z,74.18
2022-09-06T10:48:42.451Z,73.28
2022-09-06T10:49:42.414Z,72.88
2022-09-06T10:50:42.436Z,72.88
2022-09-06T10:51:42.451Z,71.97
2022-09-06T10:52:42.421Z,73.98
2022-09-06T10:53:42.384Z,73.28
2022-09-06T10:54:43.156Z,72.57
2022-09-06T10:55:45.196Z,73.48
2022-09-06T10:56:43.365Z,72.37
2022-09-06T10:59:43.314Z,73.65
2022-09-06T11:00:42.313Z,73.24
2022-09-06T11:01:42.443Z,72.24
2022-09-06T11:02:42.649Z,72.94
2022-09-06T11:04:00.369Z,73.44
2022-09-06T11:05:43.382Z,72.84
2022-09-06T11:06:42.248Z,73.04
2022-09-06T11:07:42.743Z,71.83
2022-09-06T11:09:42.200Z,72.61
2022-09-06T11:10:42.208Z,72.20
2022-09-06T11:11:42.177Z,70.79
2022-09-06T11:12:42.167Z,71.50
2022-09-06T11:13:42.159Z,72.71
2022-09-06T11:14:42.150Z,72.61
2022-09-06T11:15:42.178Z,73.11
2022-09-06T11:16:42.116Z,71.90
2022-09-06T11:17:42.142Z,71.20
2022-09-06T11:18:42.903Z,71.43
2022-09-06T11:19:42.677Z,72.64
2022-09-06T11:20:42.103Z,71.23
2022-09-06T11:21:42.091Z,72.34
2022-09-06T11:22:42.050Z,72.64
2022-09-06T11:23:42.042Z,72.94
2022-09-06T11:24:42.044Z,72.94
2022-09-06T11:25:42.035Z,71.23
2022-09-06T11:26:42.075Z,71.43
2022-09-06T11:27:42.025Z,72.34
2022-09-06T11:28:42.305Z,71.43
2022-09-06T11:29:41.985Z,72.64
2022-09-06T11:30:42.014Z,71.94
2022-09-06T11:32:42.980Z,73.98
2022-09-06T11:33:41.955Z,73.98
2022-09-06T11:34:41.935Z,73.98
2022-09-06T11:35:41.925Z,73.08
2022-09-06T11:36:42.045Z,72.07
2022-09-06T11:37:41.897Z,71.06
2022-09-06T11:38:41.887Z,72.07
2022-09-06T11:40:42.874Z,72.84
2022-09-06T11:41:41.934Z,72.64
2022-09-06T11:42:42.229Z,73.35
2022-09-06T11:43:41.857Z,72.84
2022-09-06T11:44:41.811Z,73.24
2022-09-06T11:45:41.812Z,73.55
2022-09-06T11:46:41.849Z,72.64
2022-09-06T11:47:41.921Z,73.14
2022-09-06T11:48:41.807Z,72.50
2022-09-06T11:49:41.793Z,73.51
2022-09-06T11:50:41.761Z,72.10
2022-09-06T11:51:41.762Z,73.11
2022-09-06T11:52:41.730Z,73.11
2022-09-06T11:53:41.749Z,73.91
2022-09-06T11:54:41.701Z,74.21
2022-09-06T11:55:41.700Z,74.88
2022-09-06T11:56:41.685Z,74.98
2022-09-06T11:57:41.683Z,74.58
2022-09-06T11:58:41.711Z,74.68
2022-09-06T11:59:41.662Z,73.78
2022-09-06T12:00:41.645Z,73.18
2022-09-06T12:01:41.655Z,74.48
2022-09-06T12:02:41.732Z,72.57
2022-09-06T12:04:42.597Z,72.47
2022-09-06T12:05:41.625Z,73.07
2022-09-06T12:06:42.412Z,71.47
2022-09-06T12:07:41.565Z,72.87
2022-09-06T12:08:41.604Z,72.24
2022-09-06T12:09:41.544Z,72.24
2022-09-06T12:10:41.523Z,72.84
2022-09-06T12:11:41.523Z,71.83
2022-09-06T12:12:41.529Z,71.43
2022-09-06T12:13:41.485Z,70.63
2022-09-06T12:14:41.515Z,70.53
2022-09-06T12:15:41.509Z,70.03
2022-09-06T12:16:41.474Z,70.93
2022-09-06T12:17:41.485Z,69.92
2022-09-06T12:18:41.456Z,70.12
2022-09-06T12:19:44.334Z,70.03
2022-09-06T12:20:41.431Z,71.33
2022-09-06T12:21:41.417Z,71.33
2022-09-06T12:22:41.412Z,71.63
2022-09-06T12:23:41.388Z,70.12
2022-09-06T12:24:41.379Z,69.32
2022-09-06T12:25:41.449Z,70.53
2022-09-06T12:26:41.349Z,70.32
2022-09-06T12:27:41.346Z,71.73
2022-09-06T12:28:41.332Z,72.33
2022-09-06T12:29:41.332Z,71.63
2022-09-06T12:30:41.340Z,71.73
2022-09-06T12:31:41.372Z,73.14
2022-09-06T12:32:41.302Z,70.83
2022-09-06T12:33:41.284Z,69.79
2022-09-06T12:34:41.285Z,70.39
2022-09-06T12:35:57.210Z,69.39
2022-09-06T12:36:42.265Z,71.00
2022-09-06T12:37:41.253Z,70.19
2022-09-06T12:38:41.240Z,71.50
2022-09-06T12:39:41.259Z,71.00
2022-09-06T12:40:41.206Z,70.39
2022-09-06T12:41:43.553Z,71.60
2022-09-06T12:42:41.224Z,70.70
2022-09-06T12:43:41.192Z,71.80
2022-09-06T12:44:41.175Z,70.79
2022-09-06T12:45:41.195Z,70.29
2022-09-06T12:46:41.203Z,71.00
2022-09-06T12:47:41.163Z,71.09
2022-09-06T12:48:41.131Z,69.89
2022-09-06T12:49:41.117Z,69.39
2022-09-06T12:50:41.105Z,69.89
2022-09-06T12:51:41.135Z,69.39
2022-09-06T12:52:41.077Z,69.59
2022-09-06T12:53:41.089Z,70.79
2022-09-06T12:54:41.065Z,69.49
2022-09-06T12:55:41.047Z,71.00
2022-09-06T12:56:41.028Z,70.59
2022-09-06T12:57:41.037Z,71.06
2022-09-06T12:58:40.988Z,71.26
2022-09-06T12:59:41.007Z,69.66
2022-09-06T13:00:41.010Z,71.26
2022-09-06T13:01:41.115Z,71.66
2022-09-06T13:02:41.191Z,70.86
2022-09-06T13:03:40.971Z,71.47
2022-09-06T13:04:40.950Z,70.06
2022-09-06T13:05:40.940Z,67.75
2022-09-06T13:06:40.951Z,68.15
2022-09-06T13:07:40.951Z,69.06
2022-09-06T13:08:40.912Z,67.65
2022-09-06T13:09:40.895Z,69.26
2022-09-06T13:10:40.887Z,69.06
2022-09-06T13:11:40.905Z,69.85
2022-09-06T13:12:40.894Z,70.26
2022-09-06T13:13:40.856Z,69.96
2022-09-06T13:14:40.845Z,69.35
2022-09-06T13:15:40.922Z,69.46
2022-09-06T13:16:40.835Z,69.85
2022-09-06T13:17:40.848Z,69.56
2022-09-06T13:18:40.794Z,70.36
2022-09-06T13:19:40.782Z,69.35